sensor_id;sensor_type;location;lat;lon;timestamp;temperature;humidity
12688;DHT22;6408;59.388;17.798;2023-09-07T00:05:53;13.00;99.90
12688;DHT22;6408;59.388;17.798;2023-09-07T00:08:30;13.00;99.90
12688;DHT22;6408;59.388;17.798;2023-09-07T00:11:19;13.00;99.90
12688;DHT22;6408;59.388;17.798;2023-09-07T00:14:20;13.00;99.90
12688;DHT22;6408;59.388;17.798;2023-09-07T00:17:00;12.90;99.90
12688;DHT22;6408;59.388;17.798;2023-09-07T00:19:49;12.90;99.90
12688;DHT22;6408;59.388;17.798;2023-09-07T00:22:42;13.00;99.90
12688;DHT22;6408;59.388;17.798;2023-09-07T00:32:14;13.00;99.90
12688;DHT22;6408;59.388;17.798;2023-09-07T00:36:33;13.00;99.90
12688;DHT22;6408;59.388;17.798;2023-09-07T00:38:24;13.00;99.90
12688;DHT22;6408;59.388;17.798;2023-09-07T00:44:48;13.00;99.90
12688;DHT22;6408;59.388;17.798;2023-09-07T00:47:16;13.00;99.90
12688;DHT22;6408;59.388;17.798;2023-09-07T00:49:59;13.00;99.90
12688;DHT22;6408;59.388;17.798;2023-09-07T00:52:32;13.00;99.90
12688;DHT22;6408;59.388;17.798;2023-09-07T00:55:38;13.00;99.90
12688;DHT22;6408;59.388;17.798;2023-09-07T00:58:14;13.00;99.90
12688;DHT22;6408;59.388;17.798;2023-09-07T01:00:44;13.00;99.90
12688;DHT22;6408;59.388;17.798;2023-09-07T01:03:12;13.00;99.90
12688;DHT22;6408;59.388;17.798;2023-09-07T01:06:15;13.00;99.90
12688;DHT22;6408;59.388;17.798;2023-09-07T01:08:50;13.00;99.90
12688;DHT22;6408;59.388;17.798;2023-09-07T01:11:26;13.00;99.90
12688;DHT22;6408;59.388;17.798;2023-09-07T01:14:07;13.00;99.90
12688;DHT22;6408;59.388;17.798;2023-09-07T01:16:48;13.10;99.90
12688;DHT22;6408;59.388;17.798;2023-09-07T01:19:21;13.10;99.90
12688;DHT22;6408;59.388;17.798;2023-09-07T01:22:08;13.10;99.90
12688;DHT22;6408;59.388;17.798;2023-09-07T01:24:37;13.00;99.90
12688;DHT22;6408;59.388;17.798;2023-09-07T01:27:20;13.10;99.90
12688;DHT22;6408;59.388;17.798;2023-09-07T01:30:01;13.10;99.90
12688;DHT22;6408;59.388;17.798;2023-09-07T01:32:30;13.20;99.90
12688;DHT22;6408;59.388;17.798;2023-09-07T01:35:04;13.10;99.90
12688;DHT22;6408;59.388;17.798;2023-09-07T01:37:48;13.20;99.90
12688;DHT22;6408;59.388;17.798;2023-09-07T01:40:19;13.10;99.90
12688;DHT22;6408;59.388;17.798;2023-09-07T01:42:57;13.10;99.90
12688;DHT22;6408;59.388;17.798;2023-09-07T01:45:26;13.10;99.90
12688;DHT22;6408;59.388;17.798;2023-09-07T01:48:18;13.10;99.90
12688;DHT22;6408;59.388;17.798;2023-09-07T01:50:59;13.10;99.90
12688;DHT22;6408;59.388;17.798;2023-09-07T01:53:48;13.10;99.90
12688;DHT22;6408;59.388;17.798;2023-09-07T01:56:16;13.10;99.90
12688;DHT22;6408;59.388;17.798;2023-09-07T01:58:47;13.10;99.90
12688;DHT22;6408;59.388;17.798;2023-09-07T02:04:48;13.10;99.90
12688;DHT22;6408;59.388;17.798;2023-09-07T02:07:16;13.10;99.90
12688;DHT22;6408;59.388;17.798;2023-09-07T02:10:03;13.10;99.90
12688;DHT22;6408;59.388;17.798;2023-09-07T02:12:33;13.10;99.90
12688;DHT22;6408;59.388;17.798;2023-09-07T02:15:18;13.10;99.90
12688;DHT22;6408;59.388;17.798;2023-09-07T02:18:11;13.10;99.90
12688;DHT22;6408;59.388;17.798;2023-09-07T02:20:41;13.10;99.90
12688;DHT22;6408;59.388;17.798;2023-09-07T02:23:10;13.10;99.90
12688;DHT22;6408;59.388;17.798;2023-09-07T02:25:46;13.10;99.90
12688;DHT22;6408;59.388;17.798;2023-09-07T02:28:15;13.10;99.90
12688;DHT22;6408;59.388;17.798;2023-09-07T02:31:07;13.10;99.90
12688;DHT22;6408;59.388;17.798;2023-09-07T02:33:40;13.10;99.90
12688;DHT22;6408;59.388;17.798;2023-09-07T02:36:10;13.10;99.90
12688;DHT22;6408;59.388;17.798;2023-09-07T02:38:39;13.10;99.90
12688;DHT22;6408;59.388;17.798;2023-09-07T02:41:10;13.10;99.90
12688;DHT22;6408;59.388;17.798;2023-09-07T02:43:50;13.10;99.90
12688;DHT22;6408;59.388;17.798;2023-09-07T02:46:18;13.10;99.90
12688;DHT22;6408;59.388;17.798;2023-09-07T02:48:50;13.00;99.90
12688;DHT22;6408;59.388;17.798;2023-09-07T02:51:17;13.00;99.90
12688;DHT22;6408;59.388;17.798;2023-09-07T02:53:49;13.00;99.90
12688;DHT22;6408;59.388;17.798;2023-09-07T02:56:21;13.00;99.90
12688;DHT22;6408;59.388;17.798;2023-09-07T02:58:49;13.00;99.90
12688;DHT22;6408;59.388;17.798;2023-09-07T03:01:30;13.10;99.90
12688;DHT22;6408;59.388;17.798;2023-09-07T03:04:15;13.20;99.90
12688;DHT22;6408;59.388;17.798;2023-09-07T03:09:57;13.10;99.90
12688;DHT22;6408;59.388;17.798;2023-09-07T03:12:28;13.00;99.90
12688;DHT22;6408;59.388;17.798;2023-09-07T03:15:09;13.10;99.90
12688;DHT22;6408;59.388;17.798;2023-09-07T03:20:55;13.00;99.90
12688;DHT22;6408;59.388;17.798;2023-09-07T03:23:03;13.10;99.90
12688;DHT22;6408;59.388;17.798;2023-09-07T03:23:35;13.00;99.90
12688;DHT22;6408;59.388;17.798;2023-09-07T03:26:21;13.00;99.90
12688;DHT22;6408;59.388;17.798;2023-09-07T03:28:58;12.90;99.90
12688;DHT22;6408;59.388;17.798;2023-09-07T03:31:27;12.90;99.90
12688;DHT22;6408;59.388;17.798;2023-09-07T03:34:17;12.90;99.90
12688;DHT22;6408;59.388;17.798;2023-09-07T03:36:47;12.90;99.90
12688;DHT22;6408;59.388;17.798;2023-09-07T03:39:17;13.00;99.90
12688;DHT22;6408;59.388;17.798;2023-09-07T03:42:05;12.90;99.90
12688;DHT22;6408;59.388;17.798;2023-09-07T03:44:37;12.90;99.90
12688;DHT22;6408;59.388;17.798;2023-09-07T03:47:07;13.00;99.90
12688;DHT22;6408;59.388;17.798;2023-09-07T03:49:42;12.90;99.90
12688;DHT22;6408;59.388;17.798;2023-09-07T03:52:11;12.90;99.90
12688;DHT22;6408;59.388;17.798;2023-09-07T03:54:42;12.90;99.90
12688;DHT22;6408;59.388;17.798;2023-09-07T03:57:14;12.90;99.90
12688;DHT22;6408;59.388;17.798;2023-09-07T03:59:57;12.90;99.90
12688;DHT22;6408;59.388;17.798;2023-09-07T04:02:28;12.90;99.90
12688;DHT22;6408;59.388;17.798;2023-09-07T04:05:00;12.80;99.90
12688;DHT22;6408;59.388;17.798;2023-09-07T04:07:32;12.90;99.90
12688;DHT22;6408;59.388;17.798;2023-09-07T04:10:12;12.90;99.90
12688;DHT22;6408;59.388;17.798;2023-09-07T04:12:41;12.90;99.90
12688;DHT22;6408;59.388;17.798;2023-09-07T04:15:30;13.00;99.90
12688;DHT22;6408;59.388;17.798;2023-09-07T04:18:12;13.00;99.90
12688;DHT22;6408;59.388;17.798;2023-09-07T04:20:43;13.00;99.90
12688;DHT22;6408;59.388;17.798;2023-09-07T04:23:25;13.10;99.90
12688;DHT22;6408;59.388;17.798;2023-09-07T04:26:07;13.10;99.90
12688;DHT22;6408;59.388;17.798;2023-09-07T04:28:38;13.40;99.90
12688;DHT22;6408;59.388;17.798;2023-09-07T04:31:30;13.50;99.90
12688;DHT22;6408;59.388;17.798;2023-09-07T04:33:58;13.50;99.90
12688;DHT22;6408;59.388;17.798;2023-09-07T04:36:29;13.50;99.90
12688;DHT22;6408;59.388;17.798;2023-09-07T04:39:00;13.60;99.90
12688;DHT22;6408;59.388;17.798;2023-09-07T04:41:29;13.60;99.90
12688;DHT22;6408;59.388;17.798;2023-09-07T04:44:00;13.70;99.90
12688;DHT22;6408;59.388;17.798;2023-09-07T04:46:38;13.90;99.90
12688;DHT22;6408;59.388;17.798;2023-09-07T04:49:09;14.10;99.90
12688;DHT22;6408;59.388;17.798;2023-09-07T04:51:45;14.30;99.90
12688;DHT22;6408;59.388;17.798;2023-09-07T04:54:36;15.00;99.90
12688;DHT22;6408;59.388;17.798;2023-09-07T04:57:06;16.40;99.90
12688;DHT22;6408;59.388;17.798;2023-09-07T05:03:10;18.70;99.90
12688;DHT22;6408;59.388;17.798;2023-09-07T05:06:03;19.90;99.90
12688;DHT22;6408;59.388;17.798;2023-09-07T05:08:44;20.60;99.90
12688;DHT22;6408;59.388;17.798;2023-09-07T05:11:33;21.00;99.90
12688;DHT22;6408;59.388;17.798;2023-09-07T05:17:34;22.00;99.90
12688;DHT22;6408;59.388;17.798;2023-09-07T05:20:16;22.50;99.90
12688;DHT22;6408;59.388;17.798;2023-09-07T05:22:59;22.30;99.90
12688;DHT22;6408;59.388;17.798;2023-09-07T05:25:32;22.70;99.90
12688;DHT22;6408;59.388;17.798;2023-09-07T05:27:59;23.00;99.90
12688;DHT22;6408;59.388;17.798;2023-09-07T05:30:27;23.60;99.90
12688;DHT22;6408;59.388;17.798;2023-09-07T05:33:00;24.20;99.90
12688;DHT22;6408;59.388;17.798;2023-09-07T05:35:30;24.60;99.90
12688;DHT22;6408;59.388;17.798;2023-09-07T05:38:02;25.10;99.90
12688;DHT22;6408;59.388;17.798;2023-09-07T05:40:49;25.80;99.90
12688;DHT22;6408;59.388;17.798;2023-09-07T05:43:31;26.50;99.90
12688;DHT22;6408;59.388;17.798;2023-09-07T05:46:04;26.60;99.90
12688;DHT22;6408;59.388;17.798;2023-09-07T05:48:33;27.30;99.90
12688;DHT22;6408;59.388;17.798;2023-09-07T05:51:24;25.40;99.90
12688;DHT22;6408;59.388;17.798;2023-09-07T05:53:56;22.90;99.90
12688;DHT22;6408;59.388;17.798;2023-09-07T05:56:24;21.40;99.90
12688;DHT22;6408;59.388;17.798;2023-09-07T05:58:54;20.30;99.90
12688;DHT22;6408;59.388;17.798;2023-09-07T06:01:25;19.60;99.90
12688;DHT22;6408;59.388;17.798;2023-09-07T06:03:54;19.30;99.90
12688;DHT22;6408;59.388;17.798;2023-09-07T06:06:30;19.30;99.90
12688;DHT22;6408;59.388;17.798;2023-09-07T06:09:22;18.90;99.90
12688;DHT22;6408;59.388;17.798;2023-09-07T06:12:18;18.60;99.90
12688;DHT22;6408;59.388;17.798;2023-09-07T06:15:48;18.20;99.90
12688;DHT22;6408;59.388;17.798;2023-09-07T06:18:35;18.00;99.90
12688;DHT22;6408;59.388;17.798;2023-09-07T06:21:48;17.70;99.90
12688;DHT22;6408;59.388;17.798;2023-09-07T06:24:33;17.60;99.90
12688;DHT22;6408;59.388;17.798;2023-09-07T06:27:42;17.40;99.90
12688;DHT22;6408;59.388;17.798;2023-09-07T06:30:30;17.40;99.90
12688;DHT22;6408;59.388;17.798;2023-09-07T06:33:20;17.30;99.90
12688;DHT22;6408;59.388;17.798;2023-09-07T06:35:59;17.20;99.90
12688;DHT22;6408;59.388;17.798;2023-09-07T06:38:35;17.20;99.90
12688;DHT22;6408;59.388;17.798;2023-09-07T06:41:09;17.10;99.90
12688;DHT22;6408;59.388;17.798;2023-09-07T06:43:41;17.00;99.90
12688;DHT22;6408;59.388;17.798;2023-09-07T06:46:14;17.00;99.90
12688;DHT22;6408;59.388;17.798;2023-09-07T06:48:46;17.00;99.90
12688;DHT22;6408;59.388;17.798;2023-09-07T06:51:22;17.00;99.90
12688;DHT22;6408;59.388;17.798;2023-09-07T06:53:55;17.10;99.90
12688;DHT22;6408;59.388;17.798;2023-09-07T06:56:26;17.10;99.90
12688;DHT22;6408;59.388;17.798;2023-09-07T06:59:13;17.20;99.90
12688;DHT22;6408;59.388;17.798;2023-09-07T07:02:04;17.20;99.90
12688;DHT22;6408;59.388;17.798;2023-09-07T07:04:57;17.30;99.90
12688;DHT22;6408;59.388;17.798;2023-09-07T07:07:34;17.40;99.90
12688;DHT22;6408;59.388;17.798;2023-09-07T07:10:29;17.50;99.90
12688;DHT22;6408;59.388;17.798;2023-09-07T07:13:23;17.50;99.90
12688;DHT22;6408;59.388;17.798;2023-09-07T07:16:03;17.60;99.90
12688;DHT22;6408;59.388;17.798;2023-09-07T07:19:03;17.60;99.90
12688;DHT22;6408;59.388;17.798;2023-09-07T07:21:44;17.60;99.90
12688;DHT22;6408;59.388;17.798;2023-09-07T07:24:28;17.80;99.90
12688;DHT22;6408;59.388;17.798;2023-09-07T07:27:20;17.90;99.90
12688;DHT22;6408;59.388;17.798;2023-09-07T07:29:57;18.00;99.90
12688;DHT22;6408;59.388;17.798;2023-09-07T07:32:39;18.20;99.90
12688;DHT22;6408;59.388;17.798;2023-09-07T07:38:16;18.60;99.90
12688;DHT22;6408;59.388;17.798;2023-09-07T07:41:07;19.10;99.90
12688;DHT22;6408;59.388;17.798;2023-09-07T07:44:00;19.10;99.90
12688;DHT22;6408;59.388;17.798;2023-09-07T07:46:42;19.20;99.90
12688;DHT22;6408;59.388;17.798;2023-09-07T08:09:27;20.80;99.90
12688;DHT22;6408;59.388;17.798;2023-09-07T08:12:05;22.40;99.90
12688;DHT22;6408;59.388;17.798;2023-09-07T08:14:34;24.90;99.90
12688;DHT22;6408;59.388;17.798;2023-09-07T08:17:02;25.90;99.90
12688;DHT22;6408;59.388;17.798;2023-09-07T08:19:31;24.70;99.90
12688;DHT22;6408;59.388;17.798;2023-09-07T08:22:05;24.00;99.90
12688;DHT22;6408;59.388;17.798;2023-09-07T08:24:37;23.80;99.90
12688;DHT22;6408;59.388;17.798;2023-09-07T08:27:18;25.30;99.90
12688;DHT22;6408;59.388;17.798;2023-09-07T08:29:45;31.10;99.90
12688;DHT22;6408;59.388;17.798;2023-09-07T08:32:19;34.10;99.90
12688;DHT22;6408;59.388;17.798;2023-09-07T08:34:48;35.90;99.90
12688;DHT22;6408;59.388;17.798;2023-09-07T08:37:22;37.00;99.90
12688;DHT22;6408;59.388;17.798;2023-09-07T08:39:55;36.80;99.90
12688;DHT22;6408;59.388;17.798;2023-09-07T08:42:23;37.90;99.90
12688;DHT22;6408;59.388;17.798;2023-09-07T08:44:51;38.40;99.90
12688;DHT22;6408;59.388;17.798;2023-09-07T08:47:25;38.40;99.90
12688;DHT22;6408;59.388;17.798;2023-09-07T08:49:57;38.70;99.90
12688;DHT22;6408;59.388;17.798;2023-09-07T08:52:26;38.50;99.90
12688;DHT22;6408;59.388;17.798;2023-09-07T08:54:55;38.10;99.90
12688;DHT22;6408;59.388;17.798;2023-09-07T08:57:29;37.60;99.90
12688;DHT22;6408;59.388;17.798;2023-09-07T08:59:57;37.20;99.90
12688;DHT22;6408;59.388;17.798;2023-09-07T09:02:24;37.30;99.90
12688;DHT22;6408;59.388;17.798;2023-09-07T09:04:52;37.00;99.90
12688;DHT22;6408;59.388;17.798;2023-09-07T09:07:20;35.70;99.90
12688;DHT22;6408;59.388;17.798;2023-09-07T09:09:50;34.90;99.90
12688;DHT22;6408;59.388;17.798;2023-09-07T09:12:18;34.20;99.90
12688;DHT22;6408;59.388;17.798;2023-09-07T09:14:46;33.60;99.90
12688;DHT22;6408;59.388;17.798;2023-09-07T09:17:13;32.10;99.90
12688;DHT22;6408;59.388;17.798;2023-09-07T09:19:41;30.70;99.90
12688;DHT22;6408;59.388;17.798;2023-09-07T09:22:10;29.60;99.90
12688;DHT22;6408;59.388;17.798;2023-09-07T09:24:38;28.60;99.90
12688;DHT22;6408;59.388;17.798;2023-09-07T09:27:07;27.50;99.90
12688;DHT22;6408;59.388;17.798;2023-09-07T09:29:39;27.10;99.90
12688;DHT22;6408;59.388;17.798;2023-09-07T09:32:07;26.50;99.90
12688;DHT22;6408;59.388;17.798;2023-09-07T09:34:35;26.00;99.90
12688;DHT22;6408;59.388;17.798;2023-09-07T09:37:12;25.90;99.90
12688;DHT22;6408;59.388;17.798;2023-09-07T09:39:50;25.40;99.90
12688;DHT22;6408;59.388;17.798;2023-09-07T09:42:24;24.90;99.90
12688;DHT22;6408;59.388;17.798;2023-09-07T09:45:14;24.70;99.90
12688;DHT22;6408;59.388;17.798;2023-09-07T09:47:48;24.50;99.90
12688;DHT22;6408;59.388;17.798;2023-09-07T09:50:19;24.20;99.90
12688;DHT22;6408;59.388;17.798;2023-09-07T09:53:02;24.10;99.90
12688;DHT22;6408;59.388;17.798;2023-09-07T09:55:44;24.30;99.90
12688;DHT22;6408;59.388;17.798;2023-09-07T09:58:12;24.50;99.90
12688;DHT22;6408;59.388;17.798;2023-09-07T10:00:51;24.60;99.90
12688;DHT22;6408;59.388;17.798;2023-09-07T10:03:25;24.40;99.90
12688;DHT22;6408;59.388;17.798;2023-09-07T10:06:07;24.20;99.90
12688;DHT22;6408;59.388;17.798;2023-09-07T10:08:37;23.60;99.90
12688;DHT22;6408;59.388;17.798;2023-09-07T10:11:08;23.50;99.90
12688;DHT22;6408;59.388;17.798;2023-09-07T10:13:36;23.50;99.90
12688;DHT22;6408;59.388;17.798;2023-09-07T10:16:26;23.60;99.90
12688;DHT22;6408;59.388;17.798;2023-09-07T10:18:59;23.50;99.90
12688;DHT22;6408;59.388;17.798;2023-09-07T10:21:41;23.70;99.90
12688;DHT22;6408;59.388;17.798;2023-09-07T10:24:31;23.80;99.90
12688;DHT22;6408;59.388;17.798;2023-09-07T10:27:07;24.20;99.90
12688;DHT22;6408;59.388;17.798;2023-09-07T10:29:51;24.10;99.90
12688;DHT22;6408;59.388;17.798;2023-09-07T10:32:21;24.20;99.90
12688;DHT22;6408;59.388;17.798;2023-09-07T10:35:15;24.10;99.90
12688;DHT22;6408;59.388;17.798;2023-09-07T10:37:46;24.20;99.90
12688;DHT22;6408;59.388;17.798;2023-09-07T10:40:19;24.10;99.90
12688;DHT22;6408;59.388;17.798;2023-09-07T10:42:47;24.20;99.90
12688;DHT22;6408;59.388;17.798;2023-09-07T10:45:16;24.40;99.90
12688;DHT22;6408;59.388;17.798;2023-09-07T10:50:44;24.30;99.90
12688;DHT22;6408;59.388;17.798;2023-09-07T10:53:29;24.60;99.90
12688;DHT22;6408;59.388;17.798;2023-09-07T10:55:58;24.50;99.90
12688;DHT22;6408;59.388;17.798;2023-09-07T10:58:32;24.50;99.90
12688;DHT22;6408;59.388;17.798;2023-09-07T11:01:22;24.20;99.90
12688;DHT22;6408;59.388;17.798;2023-09-07T11:04:18;24.50;99.90
12688;DHT22;6408;59.388;17.798;2023-09-07T11:06:46;24.60;99.90
12688;DHT22;6408;59.388;17.798;2023-09-07T11:09:19;24.50;99.90
12688;DHT22;6408;59.388;17.798;2023-09-07T11:12:04;24.70;99.90
12688;DHT22;6408;59.388;17.798;2023-09-07T11:14:34;24.70;99.90
12688;DHT22;6408;59.388;17.798;2023-09-07T11:17:05;24.70;99.90
12688;DHT22;6408;59.388;17.798;2023-09-07T11:19:35;24.80;99.90
12688;DHT22;6408;59.388;17.798;2023-09-07T11:22:03;25.00;99.90
12688;DHT22;6408;59.388;17.798;2023-09-07T11:24:30;25.20;99.90
12688;DHT22;6408;59.388;17.798;2023-09-07T11:26:58;25.30;99.90
12688;DHT22;6408;59.388;17.798;2023-09-07T11:29:31;25.30;99.90
12688;DHT22;6408;59.388;17.798;2023-09-07T11:32:11;25.40;99.90
12688;DHT22;6408;59.388;17.798;2023-09-07T11:38:18;24.60;99.90
12688;DHT22;6408;59.388;17.798;2023-09-07T11:41:04;24.40;99.90
12688;DHT22;6408;59.388;17.798;2023-09-07T11:43:56;24.50;99.90
12688;DHT22;6408;59.388;17.798;2023-09-07T11:46:32;24.40;99.90
12688;DHT22;6408;59.388;17.798;2023-09-07T11:49:13;24.60;99.90
12688;DHT22;6408;59.388;17.798;2023-09-07T11:51:49;24.70;99.90
12688;DHT22;6408;59.388;17.798;2023-09-07T11:54:28;24.70;99.90
12688;DHT22;6408;59.388;17.798;2023-09-07T11:57:10;24.80;99.90
12688;DHT22;6408;59.388;17.798;2023-09-07T11:59:46;24.80;99.90
12688;DHT22;6408;59.388;17.798;2023-09-07T12:02:19;25.00;99.90
12688;DHT22;6408;59.388;17.798;2023-09-07T12:04:49;24.90;99.90
12688;DHT22;6408;59.388;17.798;2023-09-07T12:07:41;24.70;99.90
12688;DHT22;6408;59.388;17.798;2023-09-07T12:10:13;24.80;99.90
12688;DHT22;6408;59.388;17.798;2023-09-07T12:13:11;24.60;99.90
12688;DHT22;6408;59.388;17.798;2023-09-07T12:15:46;24.40;99.90
12688;DHT22;6408;59.388;17.798;2023-09-07T12:18:23;24.40;99.90
12688;DHT22;6408;59.388;17.798;2023-09-07T12:21:07;24.40;99.90
12688;DHT22;6408;59.388;17.798;2023-09-07T12:23:52;24.20;99.90
12688;DHT22;6408;59.388;17.798;2023-09-07T12:26:31;24.00;99.90
12688;DHT22;6408;59.388;17.798;2023-09-07T12:29:18;24.00;99.90
12688;DHT22;6408;59.388;17.798;2023-09-07T12:32:21;24.20;99.90
12688;DHT22;6408;59.388;17.798;2023-09-07T12:35:11;24.10;99.90
12688;DHT22;6408;59.388;17.798;2023-09-07T12:37:44;24.00;99.90
12688;DHT22;6408;59.388;17.798;2023-09-07T12:41:01;24.00;99.90
12688;DHT22;6408;59.388;17.798;2023-09-07T12:43:28;24.10;99.90
12688;DHT22;6408;59.388;17.798;2023-09-07T12:46:14;24.00;99.90
12688;DHT22;6408;59.388;17.798;2023-09-07T12:48:45;24.00;99.90
12688;DHT22;6408;59.388;17.798;2023-09-07T12:51:16;23.90;99.90
12688;DHT22;6408;59.388;17.798;2023-09-07T12:54:02;23.90;99.90
12688;DHT22;6408;59.388;17.798;2023-09-07T12:56:46;23.90;99.90
12688;DHT22;6408;59.388;17.798;2023-09-07T12:59:17;23.70;99.90
12688;DHT22;6408;59.388;17.798;2023-09-07T13:01:45;23.60;99.90
12688;DHT22;6408;59.388;17.798;2023-09-07T13:04:31;23.60;99.90
12688;DHT22;6408;59.388;17.798;2023-09-07T13:07:01;23.70;99.90
12688;DHT22;6408;59.388;17.798;2023-09-07T13:09:32;23.70;99.90
12688;DHT22;6408;59.388;17.798;2023-09-07T13:12:13;23.50;99.90
12688;DHT22;6408;59.388;17.798;2023-09-07T13:14:46;23.40;99.90
12688;DHT22;6408;59.388;17.798;2023-09-07T13:17:20;23.50;99.90
12688;DHT22;6408;59.388;17.798;2023-09-07T13:20:20;23.60;99.90
12688;DHT22;6408;59.388;17.798;2023-09-07T13:22:48;23.60;99.90
12688;DHT22;6408;59.388;17.798;2023-09-07T13:25:17;23.50;99.90
12688;DHT22;6408;59.388;17.798;2023-09-07T13:27:54;23.50;99.90
12688;DHT22;6408;59.388;17.798;2023-09-07T13:30:43;23.40;99.90
12688;DHT22;6408;59.388;17.798;2023-09-07T13:33:25;23.20;99.90
12688;DHT22;6408;59.388;17.798;2023-09-07T13:36:00;23.20;99.90
12688;DHT22;6408;59.388;17.798;2023-09-07T13:38:28;23.20;99.90
12688;DHT22;6408;59.388;17.798;2023-09-07T13:40:56;23.30;99.90
12688;DHT22;6408;59.388;17.798;2023-09-07T13:43:28;23.20;99.90
12688;DHT22;6408;59.388;17.798;2023-09-07T13:46:01;23.20;99.90
12688;DHT22;6408;59.388;17.798;2023-09-07T13:48:28;23.40;99.90
12688;DHT22;6408;59.388;17.798;2023-09-07T13:51:09;23.40;99.90
12688;DHT22;6408;59.388;17.798;2023-09-07T13:53:40;23.20;99.90
12688;DHT22;6408;59.388;17.798;2023-09-07T13:56:30;23.30;99.90
12688;DHT22;6408;59.388;17.798;2023-09-07T13:59:01;23.20;99.90
12688;DHT22;6408;59.388;17.798;2023-09-07T14:01:33;23.10;99.90
12688;DHT22;6408;59.388;17.798;2023-09-07T14:04:00;23.10;99.90
12688;DHT22;6408;59.388;17.798;2023-09-07T14:06:29;23.00;99.90
12688;DHT22;6408;59.388;17.798;2023-09-07T14:09:01;22.90;99.90
12688;DHT22;6408;59.388;17.798;2023-09-07T14:11:29;22.90;99.90
12688;DHT22;6408;59.388;17.798;2023-09-07T14:14:00;22.80;99.90
12688;DHT22;6408;59.388;17.798;2023-09-07T14:16:31;22.70;99.90
12688;DHT22;6408;59.388;17.798;2023-09-07T14:19:02;22.60;99.90
12688;DHT22;6408;59.388;17.798;2023-09-07T14:21:34;22.60;99.90
12688;DHT22;6408;59.388;17.798;2023-09-07T14:24:06;22.40;99.90
12688;DHT22;6408;59.388;17.798;2023-09-07T14:26:47;22.50;99.90
12688;DHT22;6408;59.388;17.798;2023-09-07T14:29:14;22.50;99.90
12688;DHT22;6408;59.388;17.798;2023-09-07T14:31:45;22.20;99.90
12688;DHT22;6408;59.388;17.798;2023-09-07T14:34:14;22.00;99.90
12688;DHT22;6408;59.388;17.798;2023-09-07T14:36:49;22.00;99.90
12688;DHT22;6408;59.388;17.798;2023-09-07T14:39:17;21.90;99.90
12688;DHT22;6408;59.388;17.798;2023-09-07T14:41:49;21.80;99.90
12688;DHT22;6408;59.388;17.798;2023-09-07T14:44:23;21.60;99.90
12688;DHT22;6408;59.388;17.798;2023-09-07T14:46:53;21.60;99.90
12688;DHT22;6408;59.388;17.798;2023-09-07T14:49:25;21.50;99.90
12688;DHT22;6408;59.388;17.798;2023-09-07T14:51:52;21.30;99.90
12688;DHT22;6408;59.388;17.798;2023-09-07T14:54:20;21.40;99.90
12688;DHT22;6408;59.388;17.798;2023-09-07T14:56:47;21.40;99.90
12688;DHT22;6408;59.388;17.798;2023-09-07T14:59:14;21.40;99.90
12688;DHT22;6408;59.388;17.798;2023-09-07T15:01:44;21.30;99.90
12688;DHT22;6408;59.388;17.798;2023-09-07T15:04:22;21.30;99.90
12688;DHT22;6408;59.388;17.798;2023-09-07T15:06:52;21.30;99.90
12688;DHT22;6408;59.388;17.798;2023-09-07T15:09:19;21.40;99.90
12688;DHT22;6408;59.388;17.798;2023-09-07T15:11:47;21.40;99.90
12688;DHT22;6408;59.388;17.798;2023-09-07T15:14:30;21.40;99.90
12688;DHT22;6408;59.388;17.798;2023-09-07T15:16:57;21.30;99.90
12688;DHT22;6408;59.388;17.798;2023-09-07T15:19:28;21.20;99.90
12688;DHT22;6408;59.388;17.798;2023-09-07T15:22:03;21.10;99.90
12688;DHT22;6408;59.388;17.798;2023-09-07T15:24:34;21.10;99.90
12688;DHT22;6408;59.388;17.798;2023-09-07T15:27:17;21.00;99.90
12688;DHT22;6408;59.388;17.798;2023-09-07T15:29:52;20.90;99.90
12688;DHT22;6408;59.388;17.798;2023-09-07T15:32:28;20.80;99.90
12688;DHT22;6408;59.388;17.798;2023-09-07T15:35:04;20.90;99.90
12688;DHT22;6408;59.388;17.798;2023-09-07T15:37:37;20.90;99.90
12688;DHT22;6408;59.388;17.798;2023-09-07T15:40:41;20.80;99.90
12688;DHT22;6408;59.388;17.798;2023-09-07T15:43:37;20.70;99.90
12688;DHT22;6408;59.388;17.798;2023-09-07T15:46:06;20.60;99.90
12688;DHT22;6408;59.388;17.798;2023-09-07T15:48:37;20.70;99.90
12688;DHT22;6408;59.388;17.798;2023-09-07T15:51:08;20.80;99.90
12688;DHT22;6408;59.388;17.798;2023-09-07T15:53:44;20.70;99.90
12688;DHT22;6408;59.388;17.798;2023-09-07T15:56:13;20.60;99.90
12688;DHT22;6408;59.388;17.798;2023-09-07T15:58:41;20.60;99.90
12688;DHT22;6408;59.388;17.798;2023-09-07T16:01:20;20.60;99.90
12688;DHT22;6408;59.388;17.798;2023-09-07T16:03:53;20.60;99.90
12688;DHT22;6408;59.388;17.798;2023-09-07T16:06:37;20.70;99.90
12688;DHT22;6408;59.388;17.798;2023-09-07T16:09:05;20.50;99.90
12688;DHT22;6408;59.388;17.798;2023-09-07T16:11:37;20.40;99.90
12688;DHT22;6408;59.388;17.798;2023-09-07T16:14:15;20.40;99.90
12688;DHT22;6408;59.388;17.798;2023-09-07T16:17:00;20.50;99.90
12688;DHT22;6408;59.388;17.798;2023-09-07T16:19:39;20.40;99.90
12688;DHT22;6408;59.388;17.798;2023-09-07T16:22:11;20.40;99.90
12688;DHT22;6408;59.388;17.798;2023-09-07T16:24:38;20.30;99.90
12688;DHT22;6408;59.388;17.798;2023-09-07T16:27:06;20.20;99.90
12688;DHT22;6408;59.388;17.798;2023-09-07T16:29:36;20.20;99.90
12688;DHT22;6408;59.388;17.798;2023-09-07T16:32:08;20.20;99.90
12688;DHT22;6408;59.388;17.798;2023-09-07T16:34:36;20.10;99.90
12688;DHT22;6408;59.388;17.798;2023-09-07T16:37:33;20.10;99.90
12688;DHT22;6408;59.388;17.798;2023-09-07T16:40:06;20.00;99.90
12688;DHT22;6408;59.388;17.798;2023-09-07T16:42:35;20.00;99.90
12688;DHT22;6408;59.388;17.798;2023-09-07T16:45:13;19.90;99.90
12688;DHT22;6408;59.388;17.798;2023-09-07T16:47:55;19.80;99.90
12688;DHT22;6408;59.388;17.798;2023-09-07T16:50:23;19.80;99.90
12688;DHT22;6408;59.388;17.798;2023-09-07T16:53:06;19.70;99.90
12688;DHT22;6408;59.388;17.798;2023-09-07T16:55:33;19.60;99.90
12688;DHT22;6408;59.388;17.798;2023-09-07T16:58:02;19.60;99.90
12688;DHT22;6408;59.388;17.798;2023-09-07T17:00:29;19.40;99.90
12688;DHT22;6408;59.388;17.798;2023-09-07T17:02:58;19.30;99.90
12688;DHT22;6408;59.388;17.798;2023-09-07T17:06:21;19.30;99.90
12688;DHT22;6408;59.388;17.798;2023-09-07T17:09:06;19.20;99.90
12688;DHT22;6408;59.388;17.798;2023-09-07T17:11:34;19.10;99.90
12688;DHT22;6408;59.388;17.798;2023-09-07T17:14:15;19.00;99.90
12688;DHT22;6408;59.388;17.798;2023-09-07T17:17:14;19.00;99.90
12688;DHT22;6408;59.388;17.798;2023-09-07T17:20:00;18.90;99.90
12688;DHT22;6408;59.388;17.798;2023-09-07T17:22:45;18.80;99.90
12688;DHT22;6408;59.388;17.798;2023-09-07T17:32:15;18.60;99.90
12688;DHT22;6408;59.388;17.798;2023-09-07T17:34:42;18.50;99.90
12688;DHT22;6408;59.388;17.798;2023-09-07T17:40:22;18.50;99.90